sensor_id;sensor_type;location;lat;lon;timestamp;temperature;humidity
60473;DHT22;46318;52.716;6.444;2023-02-01T00:00:45;5.50;99.90
60473;DHT22;46318;52.716;6.444;2023-02-01T00:03:11;5.40;99.90
60473;DHT22;46318;52.716;6.444;2023-02-01T00:05:38;5.40;99.90
60473;DHT22;46318;52.716;6.444;2023-02-01T00:08:04;5.40;99.90
60473;DHT22;46318;52.716;6.444;2023-02-01T00:10:30;5.40;99.90
60473;DHT22;46318;52.716;6.444;2023-02-01T00:12:56;5.40;99.90
60473;DHT22;46318;52.716;6.444;2023-02-01T00:15:22;5.40;99.90
60473;DHT22;46318;52.716;6.444;2023-02-01T00:17:53;5.40;99.90
60473;DHT22;46318;52.716;6.444;2023-02-01T00:20:20;5.40;99.90
60473;DHT22;46318;52.716;6.444;2023-02-01T00:22:46;5.50;99.90
60473;DHT22;46318;52.716;6.444;2023-02-01T00:25:11;5.40;99.90
60473;DHT22;46318;52.716;6.444;2023-02-01T00:27:37;5.40;99.90
60473;DHT22;46318;52.716;6.444;2023-02-01T00:30:03;5.50;99.90
60473;DHT22;46318;52.716;6.444;2023-02-01T00:32:29;5.50;99.90
60473;DHT22;46318;52.716;6.444;2023-02-01T00:34:57;5.50;99.90
60473;DHT22;46318;52.716;6.444;2023-02-01T00:37:23;5.40;99.90
60473;DHT22;46318;52.716;6.444;2023-02-01T00:39:49;5.40;99.90
60473;DHT22;46318;52.716;6.444;2023-02-01T00:42:15;5.40;99.90
60473;DHT22;46318;52.716;6.444;2023-02-01T00:44:41;5.50;99.90
60473;DHT22;46318;52.716;6.444;2023-02-01T00:47:07;5.50;99.90
60473;DHT22;46318;52.716;6.444;2023-02-01T00:49:33;5.40;99.90
60473;DHT22;46318;52.716;6.444;2023-02-01T00:51:59;5.40;99.90
60473;DHT22;46318;52.716;6.444;2023-02-01T00:54:25;5.40;99.90
60473;DHT22;46318;52.716;6.444;2023-02-01T00:56:50;5.50;99.90
60473;DHT22;46318;52.716;6.444;2023-02-01T00:59:16;5.50;99.90
60473;DHT22;46318;52.716;6.444;2023-02-01T01:01:42;5.50;99.90
60473;DHT22;46318;52.716;6.444;2023-02-01T01:04:08;5.50;99.90
60473;DHT22;46318;52.716;6.444;2023-02-01T01:06:34;5.50;99.90
60473;DHT22;46318;52.716;6.444;2023-02-01T01:09:03;5.50;99.90
60473;DHT22;46318;52.716;6.444;2023-02-01T01:11:33;5.50;99.90
60473;DHT22;46318;52.716;6.444;2023-02-01T01:14:01;5.50;99.90
60473;DHT22;46318;52.716;6.444;2023-02-01T01:16:29;5.50;99.90
60473;DHT22;46318;52.716;6.444;2023-02-01T01:18:56;5.50;99.90
60473;DHT22;46318;52.716;6.444;2023-02-01T01:21:22;5.50;99.90
60473;DHT22;46318;52.716;6.444;2023-02-01T01:23:49;5.50;99.90
60473;DHT22;46318;52.716;6.444;2023-02-01T01:26:17;5.60;99.90
60473;DHT22;46318;52.716;6.444;2023-02-01T01:28:44;5.60;99.90
60473;DHT22;46318;52.716;6.444;2023-02-01T01:31:12;5.60;99.90
60473;DHT22;46318;52.716;6.444;2023-02-01T01:33:39;5.60;99.90
60473;DHT22;46318;52.716;6.444;2023-02-01T01:36:07;5.60;99.90
60473;DHT22;46318;52.716;6.444;2023-02-01T01:38:37;5.60;99.90
60473;DHT22;46318;52.716;6.444;2023-02-01T01:41:04;5.60;99.90
60473;DHT22;46318;52.716;6.444;2023-02-01T01:43:50;5.60;99.90
60473;DHT22;46318;52.716;6.444;2023-02-01T01:46:26;5.60;99.90
60473;DHT22;46318;52.716;6.444;2023-02-01T01:49:19;5.60;99.90
60473;DHT22;46318;52.716;6.444;2023-02-01T01:51:54;5.60;99.90
60473;DHT22;46318;52.716;6.444;2023-02-01T01:54:29;5.60;99.90
60473;DHT22;46318;52.716;6.444;2023-02-01T01:57:00;5.60;99.90
60473;DHT22;46318;52.716;6.444;2023-02-01T01:59:31;5.60;99.90
60473;DHT22;46318;52.716;6.444;2023-02-01T02:01:58;5.60;99.90
60473;DHT22;46318;52.716;6.444;2023-02-01T02:04:24;5.60;99.90
60473;DHT22;46318;52.716;6.444;2023-02-01T02:09:21;5.60;99.90
60473;DHT22;46318;52.716;6.444;2023-02-01T02:11:48;5.60;99.90
60473;DHT22;46318;52.716;6.444;2023-02-01T02:14:16;5.60;99.90
60473;DHT22;46318;52.716;6.444;2023-02-01T02:16:55;5.60;99.90
60473;DHT22;46318;52.716;6.444;2023-02-01T02:42:39;5.70;99.90
60473;DHT22;46318;52.716;6.444;2023-02-01T02:45:47;5.70;99.90
60473;DHT22;46318;52.716;6.444;2023-02-01T02:48:49;5.70;99.90
60473;DHT22;46318;52.716;6.444;2023-02-01T02:51:27;5.70;99.90
60473;DHT22;46318;52.716;6.444;2023-02-01T02:54:19;5.70;99.90
60473;DHT22;46318;52.716;6.444;2023-02-01T02:57:09;5.70;99.90
60473;DHT22;46318;52.716;6.444;2023-02-01T02:59:59;5.70;99.90
60473;DHT22;46318;52.716;6.444;2023-02-01T03:02:46;5.70;99.90
60473;DHT22;46318;52.716;6.444;2023-02-01T03:05:35;5.70;99.90
60473;DHT22;46318;52.716;6.444;2023-02-01T03:08:11;5.70;99.90
60473;DHT22;46318;52.716;6.444;2023-02-01T03:13:49;5.70;99.90
60473;DHT22;46318;52.716;6.444;2023-02-01T03:16:34;5.70;99.90
60473;DHT22;46318;52.716;6.444;2023-02-01T03:19:19;5.70;99.90
60473;DHT22;46318;52.716;6.444;2023-02-01T03:21:59;5.70;99.90
60473;DHT22;46318;52.716;6.444;2023-02-01T03:24:40;5.70;99.90
60473;DHT22;46318;52.716;6.444;2023-02-01T03:27:27;5.70;99.90
60473;DHT22;46318;52.716;6.444;2023-02-01T03:30:11;5.70;99.90
60473;DHT22;46318;52.716;6.444;2023-02-01T03:32:50;5.70;99.90
60473;DHT22;46318;52.716;6.444;2023-02-01T03:38:32;5.70;99.90
60473;DHT22;46318;52.716;6.444;2023-02-01T03:41:15;5.70;99.90
60473;DHT22;46318;52.716;6.444;2023-02-01T03:46:59;5.80;99.90
60473;DHT22;46318;52.716;6.444;2023-02-01T03:49:49;5.80;99.90
60473;DHT22;46318;52.716;6.444;2023-02-01T03:52:20;5.80;99.90
60473;DHT22;46318;52.716;6.444;2023-02-01T03:54:49;5.80;99.90
60473;DHT22;46318;52.716;6.444;2023-02-01T03:57:20;5.80;99.90
60473;DHT22;46318;52.716;6.444;2023-02-01T03:59:49;5.80;99.90
60473;DHT22;46318;52.716;6.444;2023-02-01T04:02:16;5.80;99.90
60473;DHT22;46318;52.716;6.444;2023-02-01T04:04:41;5.90;99.90
60473;DHT22;46318;52.716;6.444;2023-02-01T04:07:07;5.80;99.90
60473;DHT22;46318;52.716;6.444;2023-02-01T04:09:33;5.90;99.90
60473;DHT22;46318;52.716;6.444;2023-02-01T04:11:59;5.90;99.90
60473;DHT22;46318;52.716;6.444;2023-02-01T04:14:25;5.90;99.90
60473;DHT22;46318;52.716;6.444;2023-02-01T04:16:51;5.90;99.90
60473;DHT22;46318;52.716;6.444;2023-02-01T04:19:17;5.90;99.90
60473;DHT22;46318;52.716;6.444;2023-02-01T04:21:42;5.90;99.90
60473;DHT22;46318;52.716;6.444;2023-02-01T04:24:08;5.90;99.90
60473;DHT22;46318;52.716;6.444;2023-02-01T04:26:34;5.90;99.90
60473;DHT22;46318;52.716;6.444;2023-02-01T04:29:00;5.90;99.90
60473;DHT22;46318;52.716;6.444;2023-02-01T04:31:26;5.90;99.90
60473;DHT22;46318;52.716;6.444;2023-02-01T04:33:53;5.90;99.90
60473;DHT22;46318;52.716;6.444;2023-02-01T04:36:21;5.90;99.90
60473;DHT22;46318;52.716;6.444;2023-02-01T04:38:51;5.90;99.90
60473;DHT22;46318;52.716;6.444;2023-02-01T04:41:17;5.80;99.90
60473;DHT22;46318;52.716;6.444;2023-02-01T04:43:48;5.90;99.90
60473;DHT22;46318;52.716;6.444;2023-02-01T04:46:15;5.90;99.90
60473;DHT22;46318;52.716;6.444;2023-02-01T04:48:41;5.90;99.90
60473;DHT22;46318;52.716;6.444;2023-02-01T04:51:08;5.90;99.90
60473;DHT22;46318;52.716;6.444;2023-02-01T04:53:35;5.90;99.90
60473;DHT22;46318;52.716;6.444;2023-02-01T04:56:01;5.90;99.90
60473;DHT22;46318;52.716;6.444;2023-02-01T04:58:27;5.90;99.90
60473;DHT22;46318;52.716;6.444;2023-02-01T05:00:53;5.90;99.90
60473;DHT22;46318;52.716;6.444;2023-02-01T05:03:19;5.90;99.90
60473;DHT22;46318;52.716;6.444;2023-02-01T05:05:47;5.90;99.90
60473;DHT22;46318;52.716;6.444;2023-02-01T05:08:14;5.90;99.90
60473;DHT22;46318;52.716;6.444;2023-02-01T05:10:40;5.90;99.90
60473;DHT22;46318;52.716;6.444;2023-02-01T05:13:08;5.90;99.90
60473;DHT22;46318;52.716;6.444;2023-02-01T05:15:53;5.90;99.90
60473;DHT22;46318;52.716;6.444;2023-02-01T05:18:19;5.90;99.90
60473;DHT22;46318;52.716;6.444;2023-02-01T05:20:45;5.90;99.90
60473;DHT22;46318;52.716;6.444;2023-02-01T05:23:11;5.90;99.90
60473;DHT22;46318;52.716;6.444;2023-02-01T05:25:36;5.90;99.90
60473;DHT22;46318;52.716;6.444;2023-02-01T05:28:02;5.90;99.90
60473;DHT22;46318;52.716;6.444;2023-02-01T05:30:28;5.80;99.90
60473;DHT22;46318;52.716;6.444;2023-02-01T05:32:54;5.90;99.90
60473;DHT22;46318;52.716;6.444;2023-02-01T05:35:20;5.90;99.90
60473;DHT22;46318;52.716;6.444;2023-02-01T05:37:46;5.90;99.90
60473;DHT22;46318;52.716;6.444;2023-02-01T05:40:12;5.90;99.90
60473;DHT22;46318;52.716;6.444;2023-02-01T05:42:38;5.90;99.90
60473;DHT22;46318;52.716;6.444;2023-02-01T05:45:04;6.00;99.90
60473;DHT22;46318;52.716;6.444;2023-02-01T05:47:33;6.00;99.90
60473;DHT22;46318;52.716;6.444;2023-02-01T05:50:02;6.00;99.90
60473;DHT22;46318;52.716;6.444;2023-02-01T05:52:29;6.00;99.90
60473;DHT22;46318;52.716;6.444;2023-02-01T05:54:54;6.00;99.90
60473;DHT22;46318;52.716;6.444;2023-02-01T05:57:20;6.00;99.90
60473;DHT22;46318;52.716;6.444;2023-02-01T05:59:46;6.00;99.90
60473;DHT22;46318;52.716;6.444;2023-02-01T06:02:15;6.00;99.90
60473;DHT22;46318;52.716;6.444;2023-02-01T06:04:41;6.10;99.90
60473;DHT22;46318;52.716;6.444;2023-02-01T06:07:08;6.10;99.90
60473;DHT22;46318;52.716;6.444;2023-02-01T06:09:36;6.10;99.90
60473;DHT22;46318;52.716;6.444;2023-02-01T06:12:03;6.10;99.90
60473;DHT22;46318;52.716;6.444;2023-02-01T06:14:29;6.10;99.90
60473;DHT22;46318;52.716;6.444;2023-02-01T06:16:55;6.10;99.90
60473;DHT22;46318;52.716;6.444;2023-02-01T06:19:22;6.10;99.90
60473;DHT22;46318;52.716;6.444;2023-02-01T06:21:49;6.10;99.90
60473;DHT22;46318;52.716;6.444;2023-02-01T06:24:15;6.10;99.90
60473;DHT22;46318;52.716;6.444;2023-02-01T06:26:41;6.10;99.90
60473;DHT22;46318;52.716;6.444;2023-02-01T06:29:09;6.10;99.90
60473;DHT22;46318;52.716;6.444;2023-02-01T06:31:35;6.20;99.90
60473;DHT22;46318;52.716;6.444;2023-02-01T06:34:01;6.20;99.90
60473;DHT22;46318;52.716;6.444;2023-02-01T06:36:28;6.20;99.90
60473;DHT22;46318;52.716;6.444;2023-02-01T06:38:55;6.20;99.90
60473;DHT22;46318;52.716;6.444;2023-02-01T06:41:22;6.20;99.90
60473;DHT22;46318;52.716;6.444;2023-02-01T06:43:49;6.20;99.90
60473;DHT22;46318;52.716;6.444;2023-02-01T06:46:15;6.20;99.90
60473;DHT22;46318;52.716;6.444;2023-02-01T06:48:40;6.20;99.90
60473;DHT22;46318;52.716;6.444;2023-02-01T06:51:19;6.20;99.90
60473;DHT22;46318;52.716;6.444;2023-02-01T06:53:47;6.20;99.90
60473;DHT22;46318;52.716;6.444;2023-02-01T06:56:12;6.20;99.90
60473;DHT22;46318;52.716;6.444;2023-02-01T06:58:38;6.30;99.90
60473;DHT22;46318;52.716;6.444;2023-02-01T07:01:08;6.30;99.90
60473;DHT22;46318;52.716;6.444;2023-02-01T07:03:36;6.30;99.90
60473;DHT22;46318;52.716;6.444;2023-02-01T07:06:03;6.30;99.90
60473;DHT22;46318;52.716;6.444;2023-02-01T07:08:35;6.30;99.90
60473;DHT22;46318;52.716;6.444;2023-02-01T07:11:08;6.30;99.90
60473;DHT22;46318;52.716;6.444;2023-02-01T07:13:36;6.30;99.90
60473;DHT22;46318;52.716;6.444;2023-02-01T07:16:08;6.30;99.90
60473;DHT22;46318;52.716;6.444;2023-02-01T07:18:35;6.30;99.90
60473;DHT22;46318;52.716;6.444;2023-02-01T07:21:01;6.30;99.90
60473;DHT22;46318;52.716;6.444;2023-02-01T07:23:27;6.30;99.90
60473;DHT22;46318;52.716;6.444;2023-02-01T07:25:58;6.30;99.90
60473;DHT22;46318;52.716;6.444;2023-02-01T07:28:28;6.30;99.90
60473;DHT22;46318;52.716;6.444;2023-02-01T07:31:13;6.30;99.90
60473;DHT22;46318;52.716;6.444;2023-02-01T07:33:48;6.30;99.90
60473;DHT22;46318;52.716;6.444;2023-02-01T07:36:17;6.30;99.90
60473;DHT22;46318;52.716;6.444;2023-02-01T07:38:44;6.30;99.90
60473;DHT22;46318;52.716;6.444;2023-02-01T07:41:10;6.30;99.90
60473;DHT22;46318;52.716;6.444;2023-02-01T07:43:36;6.30;99.90
60473;DHT22;46318;52.716;6.444;2023-02-01T07:46:03;6.30;99.90
60473;DHT22;46318;52.716;6.444;2023-02-01T07:48:31;6.40;99.90
60473;DHT22;46318;52.716;6.444;2023-02-01T07:51:05;6.40;99.90
60473;DHT22;46318;52.716;6.444;2023-02-01T07:53:34;6.40;99.90
60473;DHT22;46318;52.716;6.444;2023-02-01T07:56:00;6.30;99.90
60473;DHT22;46318;52.716;6.444;2023-02-01T07:58:27;6.30;99.90
60473;DHT22;46318;52.716;6.444;2023-02-01T08:00:54;6.30;99.90
60473;DHT22;46318;52.716;6.444;2023-02-01T08:03:39;6.30;99.90
60473;DHT22;46318;52.716;6.444;2023-02-01T08:06:06;6.30;99.90
60473;DHT22;46318;52.716;6.444;2023-02-01T08:08:32;6.30;99.90
60473;DHT22;46318;52.716;6.444;2023-02-01T08:11:00;6.30;99.90
60473;DHT22;46318;52.716;6.444;2023-02-01T08:13:27;6.30;99.90
60473;DHT22;46318;52.716;6.444;2023-02-01T08:16:01;6.30;99.90
60473;DHT22;46318;52.716;6.444;2023-02-01T08:18:29;6.30;99.90
60473;DHT22;46318;52.716;6.444;2023-02-01T08:20:55;6.30;99.90
60473;DHT22;46318;52.716;6.444;2023-02-01T08:23:21;6.30;99.90
60473;DHT22;46318;52.716;6.444;2023-02-01T08:25:48;6.30;99.90
60473;DHT22;46318;52.716;6.444;2023-02-01T08:28:14;6.30;99.90
60473;DHT22;46318;52.716;6.444;2023-02-01T08:30:40;6.30;99.90
60473;DHT22;46318;52.716;6.444;2023-02-01T08:33:07;6.20;99.90
60473;DHT22;46318;52.716;6.444;2023-02-01T08:35:38;6.30;99.90
60473;DHT22;46318;52.716;6.444;2023-02-01T08:38:04;6.30;99.90
60473;DHT22;46318;52.716;6.444;2023-02-01T08:40:31;6.30;99.90
60473;DHT22;46318;52.716;6.444;2023-02-01T08:42:57;6.30;99.90
60473;DHT22;46318;52.716;6.444;2023-02-01T08:45:26;6.30;99.90
60473;DHT22;46318;52.716;6.444;2023-02-01T08:47:55;6.30;99.90
60473;DHT22;46318;52.716;6.444;2023-02-01T08:50:22;6.30;99.90
60473;DHT22;46318;52.716;6.444;2023-02-01T08:52:49;6.30;99.90
60473;DHT22;46318;52.716;6.444;2023-02-01T08:55:15;6.30;99.90
60473;DHT22;46318;52.716;6.444;2023-02-01T08:57:41;6.30;99.90
60473;DHT22;46318;52.716;6.444;2023-02-01T09:00:13;6.30;99.90
60473;DHT22;46318;52.716;6.444;2023-02-01T09:02:41;6.40;99.90
60473;DHT22;46318;52.716;6.444;2023-02-01T09:05:07;6.40;99.90
60473;DHT22;46318;52.716;6.444;2023-02-01T09:07:34;6.30;99.90
60473;DHT22;46318;52.716;6.444;2023-02-01T09:10:01;6.40;99.90
60473;DHT22;46318;52.716;6.444;2023-02-01T09:12:31;6.40;99.90
60473;DHT22;46318;52.716;6.444;2023-02-01T09:14:58;6.40;99.90
60473;DHT22;46318;52.716;6.444;2023-02-01T09:17:26;6.40;99.90
60473;DHT22;46318;52.716;6.444;2023-02-01T09:19:55;6.40;99.90
60473;DHT22;46318;52.716;6.444;2023-02-01T09:22:23;6.40;99.90
60473;DHT22;46318;52.716;6.444;2023-02-01T09:24:49;6.30;99.90
60473;DHT22;46318;52.716;6.444;2023-02-01T09:27:18;6.40;99.90
60473;DHT22;46318;52.716;6.444;2023-02-01T09:29:44;6.40;99.90
60473;DHT22;46318;52.716;6.444;2023-02-01T09:32:15;6.40;99.90
60473;DHT22;46318;52.716;6.444;2023-02-01T09:34:40;6.40;99.90
60473;DHT22;46318;52.716;6.444;2023-02-01T09:37:06;6.40;99.90
60473;DHT22;46318;52.716;6.444;2023-02-01T09:39:32;6.40;99.90
60473;DHT22;46318;52.716;6.444;2023-02-01T09:45:01;6.40;99.90
60473;DHT22;46318;52.716;6.444;2023-02-01T09:47:55;6.40;99.90
60473;DHT22;46318;52.716;6.444;2023-02-01T09:50:39;6.40;99.90
60473;DHT22;46318;52.716;6.444;2023-02-01T09:53:15;6.40;99.90
60473;DHT22;46318;52.716;6.444;2023-02-01T09:55:51;6.40;99.90
60473;DHT22;46318;52.716;6.444;2023-02-01T10:01:04;6.50;99.90
60473;DHT22;46318;52.716;6.444;2023-02-01T10:03:35;6.50;99.90
60473;DHT22;46318;52.716;6.444;2023-02-01T10:09:26;6.50;99.90
60473;DHT22;46318;52.716;6.444;2023-02-01T10:18:55;6.40;99.90
60473;DHT22;46318;52.716;6.444;2023-02-01T10:22:05;6.40;99.90
60473;DHT22;46318;52.716;6.444;2023-02-01T10:24:41;6.40;99.90
60473;DHT22;46318;52.716;6.444;2023-02-01T10:27:17;6.40;99.90
60473;DHT22;46318;52.716;6.444;2023-02-01T10:29:51;6.40;99.90
60473;DHT22;46318;52.716;6.444;2023-02-01T10:32:23;6.40;99.90
60473;DHT22;46318;52.716;6.444;2023-02-01T10:37:41;6.40;99.90
60473;DHT22;46318;52.716;6.444;2023-02-01T10:40:24;6.40;99.90
60473;DHT22;46318;52.716;6.444;2023-02-01T10:43:01;6.40;99.90
60473;DHT22;46318;52.716;6.444;2023-02-01T10:45:29;6.40;99.90
60473;DHT22;46318;52.716;6.444;2023-02-01T10:47:58;6.40;99.90
60473;DHT22;46318;52.716;6.444;2023-02-01T10:50:42;6.40;99.90
60473;DHT22;46318;52.716;6.444;2023-02-01T10:53:30;6.40;99.90
60473;DHT22;46318;52.716;6.444;2023-02-01T10:56:25;6.40;99.90
60473;DHT22;46318;52.716;6.444;2023-02-01T10:59:06;6.40;99.90
60473;DHT22;46318;52.716;6.444;2023-02-01T11:01:44;6.40;99.90
60473;DHT22;46318;52.716;6.444;2023-02-01T11:04:16;6.40;99.90
60473;DHT22;46318;52.716;6.444;2023-02-01T11:09:24;6.30;99.90
60473;DHT22;46318;52.716;6.444;2023-02-01T11:16:48;6.30;99.90
60473;DHT22;46318;52.716;6.444;2023-02-01T11:19:17;6.30;99.90
60473;DHT22;46318;52.716;6.444;2023-02-01T11:21:44;6.40;99.90
60473;DHT22;46318;52.716;6.444;2023-02-01T11:24:31;6.40;99.90
60473;DHT22;46318;52.716;6.444;2023-02-01T11:27:04;6.40;99.90
60473;DHT22;46318;52.716;6.444;2023-02-01T11:29:43;6.40;99.90
60473;DHT22;46318;52.716;6.444;2023-02-01T11:32:13;6.40;99.90
60473;DHT22;46318;52.716;6.444;2023-02-01T11:34:49;6.40;99.90
60473;DHT22;46318;52.716;6.444;2023-02-01T11:37:28;6.40;99.90
60473;DHT22;46318;52.716;6.444;2023-02-01T11:39:57;6.40;99.90
60473;DHT22;46318;52.716;6.444;2023-02-01T11:42:26;6.50;99.90
60473;DHT22;46318;52.716;6.444;2023-02-01T11:45:20;6.50;99.90
60473;DHT22;46318;52.716;6.444;2023-02-01T11:47:55;6.50;99.90
60473;DHT22;46318;52.716;6.444;2023-02-01T11:57:17;6.50;99.90
60473;DHT22;46318;52.716;6.444;2023-02-01T12:02:44;6.50;99.90
60473;DHT22;46318;52.716;6.444;2023-02-01T12:10:33;6.50;99.90
60473;DHT22;46318;52.716;6.444;2023-02-01T12:19:27;6.50;99.90
60473;DHT22;46318;52.716;6.444;2023-02-01T12:33:39;6.50;99.90
60473;DHT22;46318;52.716;6.444;2023-02-01T12:36:32;6.50;99.90
60473;DHT22;46318;52.716;6.444;2023-02-01T12:42:13;6.50;99.90
60473;DHT22;46318;52.716;6.444;2023-02-01T12:47:51;6.50;99.90
60473;DHT22;46318;52.716;6.444;2023-02-01T12:50:32;6.50;99.90
60473;DHT22;46318;52.716;6.444;2023-02-01T12:55:39;6.50;99.90
60473;DHT22;46318;52.716;6.444;2023-02-01T12:58:35;6.50;99.90
60473;DHT22;46318;52.716;6.444;2023-02-01T13:01:12;6.50;99.90
60473;DHT22;46318;52.716;6.444;2023-02-01T13:07:01;6.60;99.90
60473;DHT22;46318;52.716;6.444;2023-02-01T13:10:11;6.60;99.90
60473;DHT22;46318;52.716;6.444;2023-02-01T13:15:55;6.60;99.90
60473;DHT22;46318;52.716;6.444;2023-02-01T13:18:27;6.70;99.90
60473;DHT22;46318;52.716;6.444;2023-02-01T13:21:13;6.70;99.90
60473;DHT22;46318;52.716;6.444;2023-02-01T13:23:46;6.70;99.90
60473;DHT22;46318;52.716;6.444;2023-02-01T13:26:12;6.80;99.90
60473;DHT22;46318;52.716;6.444;2023-02-01T13:28:45;6.80;99.90
60473;DHT22;46318;52.716;6.444;2023-02-01T13:43:16;7.00;99.90
60473;DHT22;46318;52.716;6.444;2023-02-01T13:45:50;7.10;99.90
60473;DHT22;46318;52.716;6.444;2023-02-01T13:48:29;7.10;99.90
60473;DHT22;46318;52.716;6.444;2023-02-01T13:51:36;7.10;99.90
60473;DHT22;46318;52.716;6.444;2023-02-01T13:54:07;7.10;99.90
60473;DHT22;46318;52.716;6.444;2023-02-01T13:56:43;7.10;99.90
60473;DHT22;46318;52.716;6.444;2023-02-01T14:05:11;7.20;99.90
60473;DHT22;46318;52.716;6.444;2023-02-01T14:10:55;7.20;99.90
60473;DHT22;46318;52.716;6.444;2023-02-01T14:13:31;7.20;99.90
60473;DHT22;46318;52.716;6.444;2023-02-01T14:21:23;7.30;99.90
60473;DHT22;46318;52.716;6.444;2023-02-01T14:44:47;7.50;99.90
60473;DHT22;46318;52.716;6.444;2023-02-01T14:55:43;7.50;99.90
60473;DHT22;46318;52.716;6.444;2023-02-01T14:58:46;7.40;99.90
60473;DHT22;46318;52.716;6.444;2023-02-01T15:01:21;7.50;99.90
60473;DHT22;46318;52.716;6.444;2023-02-01T15:09:39;7.50;99.90
60473;DHT22;46318;52.716;6.444;2023-02-01T15:17:21;7.50;99.90
60473;DHT22;46318;52.716;6.444;2023-02-01T15:19:56;7.50;99.90
60473;DHT22;46318;52.716;6.444;2023-02-01T15:22:24;7.50;99.90
60473;DHT22;46318;52.716;6.444;2023-02-01T15:24:53;7.50;99.90
60473;DHT22;46318;52.716;6.444;2023-02-01T15:27:21;7.50;99.90
60473;DHT22;46318;52.716;6.444;2023-02-01T15:29:48;7.60;99.90
60473;DHT22;46318;52.716;6.444;2023-02-01T15:32:34;7.50;99.90
60473;DHT22;46318;52.716;6.444;2023-02-01T15:35:04;7.50;99.90
60473;DHT22;46318;52.716;6.444;2023-02-01T15:37:31;7.50;99.90
60473;DHT22;46318;52.716;6.444;2023-02-01T15:42:55;7.50;99.90
60473;DHT22;46318;52.716;6.444;2023-02-01T15:45:29;7.60;99.90
60473;DHT22;46318;52.716;6.444;2023-02-01T15:47:58;7.50;99.90
60473;DHT22;46318;52.716;6.444;2023-02-01T15:50:24;7.60;99.90
60473;DHT22;46318;52.716;6.444;2023-02-01T15:52:53;7.50;99.90
60473;DHT22;46318;52.716;6.444;2023-02-01T15:58:08;7.50;99.90
60473;DHT22;46318;52.716;6.444;2023-02-01T16:00:57;7.50;99.90
60473;DHT22;46318;52.716;6.444;2023-02-01T16:06:12;7.50;99.90
60473;DHT22;46318;52.716;6.444;2023-02-01T16:09:02;7.50;99.90
60473;DHT22;46318;52.716;6.444;2023-02-01T16:12:02;7.40;99.90
60473;DHT22;46318;52.716;6.444;2023-02-01T16:14:29;7.40;99.90
60473;DHT22;46318;52.716;6.444;2023-02-01T16:16:58;7.40;99.90
60473;DHT22;46318;52.716;6.444;2023-02-01T16:19:24;7.40;99.90
60473;DHT22;46318;52.716;6.444;2023-02-01T16:21:56;7.40;99.90
60473;DHT22;46318;52.716;6.444;2023-02-01T16:24:23;7.40;99.90
60473;DHT22;46318;52.716;6.444;2023-02-01T16:26:51;7.40;99.90
60473;DHT22;46318;52.716;6.444;2023-02-01T16:29:17;7.40;99.90
60473;DHT22;46318;52.716;6.444;2023-02-01T16:31:43;7.30;99.90
60473;DHT22;46318;52.716;6.444;2023-02-01T16:34:14;7.30;99.90
60473;DHT22;46318;52.716;6.444;2023-02-01T16:36:46;7.30;99.90
60473;DHT22;46318;52.716;6.444;2023-02-01T16:39:17;7.30;99.90
60473;DHT22;46318;52.716;6.444;2023-02-01T16:41:44;7.20;99.90
60473;DHT22;46318;52.716;6.444;2023-02-01T16:44:13;7.20;99.90
60473;DHT22;46318;52.716;6.444;2023-02-01T16:46:41;7.20;99.90
60473;DHT22;46318;52.716;6.444;2023-02-01T16:49:29;7.20;99.90
60473;DHT22;46318;52.716;6.444;2023-02-01T16:51:57;7.20;99.90
60473;DHT22;46318;52.716;6.444;2023-02-01T16:54:24;7.20;99.90
60473;DHT22;46318;52.716;6.444;2023-02-01T16:56:50;7.20;99.90
60473;DHT22;46318;52.716;6.444;2023-02-01T16:59:15;7.20;99.90
60473;DHT22;46318;52.716;6.444;2023-02-01T17:01:41;7.10;99.90
60473;DHT22;46318;52.716;6.444;2023-02-01T17:04:09;7.10;99.90
60473;DHT22;46318;52.716;6.444;2023-02-01T17:06:36;7.10;99.90
60473;DHT22;46318;52.716;6.444;2023-02-01T17:09:03;7.10;99.90
60473;DHT22;46318;52.716;6.444;2023-02-01T17:11:30;7.10;99.90
60473;DHT22;46318;52.716;6.444;2023-02-01T17:14:29;7.00;99.90
60473;DHT22;46318;52.716;6.444;2023-02-01T17:16:56;7.10;99.90
60473;DHT22;46318;52.716;6.444;2023-02-01T17:19:23;7.00;99.90
60473;DHT22;46318;52.716;6.444;2023-02-01T17:21:50;7.00;99.90
60473;DHT22;46318;52.716;6.444;2023-02-01T17:24:22;7.00;99.90
60473;DHT22;46318;52.716;6.444;2023-02-01T17:26:50;7.00;99.90
60473;DHT22;46318;52.716;6.444;2023-02-01T17:29:17;7.00;99.90
60473;DHT22;46318;52.716;6.444;2023-02-01T17:31:47;7.00;99.90
60473;DHT22;46318;52.716;6.444;2023-02-01T17:34:15;7.00;99.90
60473;DHT22;46318;52.716;6.444;2023-02-01T17:36:43;6.90;99.90
60473;DHT22;46318;52.716;6.444;2023-02-01T17:39:10;6.90;99.90
60473;DHT22;46318;52.716;6.444;2023-02-01T17:41:56;6.90;99.90
60473;DHT22;46318;52.716;6.444;2023-02-01T17:44:22;6.90;99.90
60473;DHT22;46318;52.716;6.444;2023-02-01T17:46:48;6.80;99.90
60473;DHT22;46318;52.716;6.444;2023-02-01T17:49:13;6.80;99.90
60473;DHT22;46318;52.716;6.444;2023-02-01T17:51:39;6.80;99.90
60473;DHT22;46318;52.716;6.444;2023-02-01T17:54:11;6.80;99.90
60473;DHT22;46318;52.716;6.444;2023-02-01T17:56:38;6.80;99.90
60473;DHT22;46318;52.716;6.444;2023-02-01T17:59:04;6.80;99.90
60473;DHT22;46318;52.716;6.444;2023-02-01T18:01:30;6.80;99.90
60473;DHT22;46318;52.716;6.444;2023-02-01T18:03:57;6.80;99.90
60473;DHT22;46318;52.716;6.444;2023-02-01T18:06:25;6.70;99.90
60473;DHT22;46318;52.716;6.444;2023-02-01T18:08:51;6.70;99.90
60473;DHT22;46318;52.716;6.444;2023-02-01T18:11:20;6.70;99.90
60473;DHT22;46318;52.716;6.444;2023-02-01T18:13:47;6.70;99.90
60473;DHT22;46318;52.716;6.444;2023-02-01T18:16:20;6.70;99.90
60473;DHT22;46318;52.716;6.444;2023-02-01T18:18:50;6.70;99.90
60473;DHT22;46318;52.716;6.444;2023-02-01T18:21:19;6.70;99.90
60473;DHT22;46318;52.716;6.444;2023-02-01T18:23:46;6.70;99.90
60473;DHT22;46318;52.716;6.444;2023-02-01T18:26:15;6.70;99.90
60473;DHT22;46318;52.716;6.444;2023-02-01T18:28:42;6.70;99.90
60473;DHT22;46318;52.716;6.444;2023-02-01T18:31:22;6.70;99.90
60473;DHT22;46318;52.716;6.444;2023-02-01T18:33:49;6.60;99.90
60473;DHT22;46318;52.716;6.444;2023-02-01T18:36:16;6.60;99.90
60473;DHT22;46318;52.716;6.444;2023-02-01T18:38:42;6.60;99.90
60473;DHT22;46318;52.716;6.444;2023-02-01T18:41:14;6.60;99.90
60473;DHT22;46318;52.716;6.444;2023-02-01T18:43:41;6.50;99.90
60473;DHT22;46318;52.716;6.444;2023-02-01T18:46:11;6.50;99.90
60473;DHT22;46318;52.716;6.444;2023-02-01T18:48:38;6.50;99.90
60473;DHT22;46318;52.716;6.444;2023-02-01T18:51:05;6.50;99.90
60473;DHT22;46318;52.716;6.444;2023-02-01T18:53:31;6.50;99.90
60473;DHT22;46318;52.716;6.444;2023-02-01T18:56:08;6.40;99.90
60473;DHT22;46318;52.716;6.444;2023-02-01T18:58:48;6.40;99.90
60473;DHT22;46318;52.716;6.444;2023-02-01T19:01:17;6.40;99.90
60473;DHT22;46318;52.716;6.444;2023-02-01T19:03:47;6.40;99.90
60473;DHT22;46318;52.716;6.444;2023-02-01T19:06:14;6.40;99.90
60473;DHT22;46318;52.716;6.444;2023-02-01T19:08:43;6.40;99.90
60473;DHT22;46318;52.716;6.444;2023-02-01T19:11:09;6.40;99.90
60473;DHT22;46318;52.716;6.444;2023-02-01T19:13:36;6.30;99.90